Time;durP1;ratioP1;P1;durP2;ratioP2;P2;SDS_P1;SDS_P2;PMS_P1;PMS_P2;Temp;Humidity;BMP_temperature;BMP_pressure;BME280_temperature;BME280_humidity;BME280_pressure;Samples;Min_cycle;Max_cycle;Signal;HPM_P1;HPM_P2
2022/07/25 00:00:41;;;;;;;2.63;2.42;;;24.80;62.30;;;;;;5092882;28;20055;-81
2022/07/25 00:03:07;;;;;;;2.75;2.55;;;24.70;62.40;;;;;;5074483;28;20140;-81
2022/07/25 00:05:33;;;;;;;4.05;2.88;;;24.70;62.50;;;;;;5092615;28;20513;-81
2022/07/25 00:07:58;;;;;;;3.13;2.40;;;24.70;62.80;;;;;;5074371;28;20016;-81
2022/07/25 00:10:24;;;;;;;3.05;2.78;;;24.60;62.90;;;;;;5074273;28;20028;-82
2022/07/25 00:12:50;;;;;;;3.95;2.60;;;24.60;62.90;;;;;;5074289;28;20028;-81
2022/07/25 00:15:15;;;;;;;4.03;2.70;;;24.60;62.90;;;;;;5074486;28;20024;-81
2022/07/25 00:17:41;;;;;;;2.92;2.58;;;24.60;63.00;;;;;;5074282;28;20031;-81
2022/07/25 00:20:07;;;;;;;3.40;2.63;;;24.60;63.10;;;;;;5074345;28;20020;-80
2022/07/25 00:22:33;;;;;;;3.70;2.75;;;24.50;63.10;;;;;;5091163;28;20054;-81
2022/07/25 00:24:59;;;;;;;2.90;2.60;;;24.50;63.10;;;;;;5092795;28;20024;-81
2022/07/25 00:27:25;;;;;;;4.53;2.60;;;24.50;63.10;;;;;;5092392;28;20429;-81
2022/07/25 00:29:50;;;;;;;2.83;2.38;;;24.50;63.20;;;;;;5074326;28;20037;-81
2022/07/25 00:32:16;;;;;;;2.88;2.58;;;24.50;63.30;;;;;;5070564;28;20095;-81
2022/07/25 00:34:41;;;;;;;3.72;2.70;;;24.50;63.30;;;;;;5070671;28;20040;-80
2022/07/25 00:37:07;;;;;;;3.10;2.80;;;24.50;63.30;;;;;;5070748;28;20514;-81
2022/07/25 00:39:33;;;;;;;3.10;2.80;;;24.50;63.30;;;;;;5071246;28;20417;-81
2022/07/25 00:41:58;;;;;;;2.92;2.63;;;24.40;63.30;;;;;;5070708;28;20028;-81
2022/07/25 00:44:28;;;;;;;2.78;2.40;;;24.40;63.30;;;;;;5070491;28;20404;-81
2022/07/25 00:46:55;;;;;;;2.85;2.55;;;24.40;63.40;;;;;;5070804;28;20100;-81
2022/07/25 00:49:20;;;;;;;2.70;2.50;;;24.40;63.50;;;;;;5071899;28;20028;-81
2022/07/25 00:51:46;;;;;;;3.53;2.80;;;24.40;63.60;;;;;;5070046;28;20479;-81
2022/07/25 00:54:14;;;;;;;3.05;2.63;;;24.30;63.60;;;;;;5087405;28;20611;-81
2022/07/25 00:56:41;;;;;;;3.30;3.00;;;24.30;63.60;;;;;;5070609;28;20013;-81
2022/07/25 00:59:07;;;;;;;3.00;2.65;;;24.30;63.50;;;;;;5070538;28;20027;-81
2022/07/25 01:01:33;;;;;;;2.90;2.60;;;24.30;63.60;;;;;;5092774;28;20058;-82
2022/07/25 01:04:02;;;;;;;3.20;2.45;;;24.30;63.60;;;;;;5080731;28;20018;-83
2022/07/25 01:06:28;;;;;;;2.85;2.53;;;24.30;63.70;;;;;;5100540;28;20112;-83
2022/07/25 01:08:54;;;;;;;3.05;2.75;;;24.30;63.80;;;;;;5078680;28;20047;-82
2022/07/25 01:11:21;;;;;;;3.30;3.00;;;24.20;63.80;;;;;;5078128;28;20020;-81
2022/07/25 01:13:46;;;;;;;4.82;2.90;;;24.20;63.90;;;;;;5093007;28;20406;-81
2022/07/25 01:16:12;;;;;;;3.22;2.92;;;24.20;63.90;;;;;;5076475;28;20115;-81
2022/07/25 01:18:38;;;;;;;4.72;3.10;;;24.20;64.00;;;;;;5089742;28;20040;-82
2022/07/25 01:24:27;;;;;;;3.58;3.15;;;24.20;64.10;;;;;;5079756;28;20047;-82
2022/07/25 01:26:53;;;;;;;4.30;2.88;;;24.10;64.00;;;;;;5079932;28;20013;-82
2022/07/25 01:29:20;;;;;;;3.08;2.88;;;24.10;64.10;;;;;;5079503;28;20049;-82
2022/07/25 01:31:45;;;;;;;3.22;2.92;;;24.00;64.20;;;;;;5093565;28;20098;-81
2022/07/25 01:34:11;;;;;;;3.00;2.70;;;24.00;64.30;;;;;;5079624;28;20031;-82
2022/07/25 01:36:37;;;;;;;3.42;3.03;;;24.00;64.30;;;;;;5080812;28;20031;-81
2022/07/25 01:39:03;;;;;;;3.35;3.05;;;24.00;64.30;;;;;;5082161;28;20027;-82
2022/07/25 01:41:28;;;;;;;3.53;3.15;;;24.00;64.30;;;;;;5082455;28;20032;-81
2022/07/25 01:43:54;;;;;;;3.28;2.97;;;24.00;64.30;;;;;;5082510;28;20024;-82
2022/07/25 01:46:22;;;;;;;5.35;3.40;;;24.00;64.30;;;;;;5083456;28;20039;-82
2022/07/25 01:48:48;;;;;;;3.70;3.28;;;24.00;64.20;;;;;;5084966;28;20035;-83
2022/07/25 01:51:14;;;;;;;3.40;3.10;;;24.00;64.20;;;;;;5099355;28;20024;-81
2022/07/25 01:53:39;;;;;;;4.13;3.42;;;24.00;64.10;;;;;;5102844;28;20131;-81
2022/07/25 01:56:06;;;;;;;4.60;3.10;;;24.00;64.10;;;;;;5103777;28;20024;-81
2022/07/25 01:58:34;;;;;;;4.25;3.42;;;24.00;64.10;;;;;;5091326;28;20004;-82
2022/07/25 02:01:00;;;;;;;5.00;3.30;;;24.00;64.20;;;;;;5088314;28;20024;-82
2022/07/25 02:03:29;;;;;;;5.47;3.50;;;24.00;64.10;;;;;;5100627;28;20024;-81
2022/07/25 02:06:02;;;;;;;3.65;3.25;;;24.00;64.10;;;;;;5083038;28;20047;-82
2022/07/25 02:08:29;;;;;;;3.75;3.45;;;23.90;64.20;;;;;;5100549;28;20032;-82
2022/07/25 02:10:55;;;;;;;4.35;3.10;;;23.90;64.30;;;;;;5083750;28;20028;-82
2022/07/25 02:13:22;;;;;;;4.50;3.28;;;23.90;64.30;;;;;;5101968;28;20109;-81
2022/07/25 02:15:48;;;;;;;3.38;3.08;;;23.80;64.30;;;;;;5080199;28;20036;-81
2022/07/25 02:18:13;;;;;;;4.72;3.33;;;23.80;64.40;;;;;;5097593;28;20023;-81
2022/07/25 02:20:39;;;;;;;3.50;3.20;;;23.80;64.40;;;;;;5080114;28;20411;-81
2022/07/25 02:23:04;;;;;;;4.53;3.28;;;23.80;64.40;;;;;;5080780;28;20024;-82
2022/07/25 02:25:31;;;;;;;4.43;3.60;;;23.80;64.60;;;;;;5078236;28;20024;-82
2022/07/25 02:27:56;;;;;;;4.97;3.60;;;23.70;64.50;;;;;;5093549;28;20064;-81
2022/07/25 02:30:22;;;;;;;4.50;3.70;;;23.70;64.60;;;;;;5094213;28;20415;-81
2022/07/25 02:32:48;;;;;;;3.90;3.45;;;23.80;64.70;;;;;;5076541;28;20097;-81
2022/07/25 02:35:14;;;;;;;3.67;3.38;;;23.70;64.60;;;;;;5094375;28;20020;-81
2022/07/25 02:37:40;;;;;;;3.92;3.42;;;23.70;64.70;;;;;;5076194;28;20100;-81
2022/07/25 02:40:06;;;;;;;3.80;3.40;;;23.70;64.70;;;;;;5094785;28;20035;-81
2022/07/25 02:42:32;;;;;;;5.18;3.47;;;23.70;64.80;;;;;;5094914;28;20051;-80
2022/07/25 02:44:58;;;;;;;5.45;3.83;;;23.70;65.40;;;;;;5076084;28;20391;-81
2022/07/25 02:47:23;;;;;;;4.10;3.70;;;23.70;64.80;;;;;;5075975;28;20031;-80
2022/07/25 02:49:49;;;;;;;3.80;3.50;;;23.70;64.80;;;;;;5075847;28;20027;-80
2022/07/25 02:52:14;;;;;;;3.90;3.60;;;23.60;64.80;;;;;;5076323;28;20169;-80
2022/07/25 02:54:40;;;;;;;3.90;3.60;;;23.60;64.80;;;;;;5076490;28;20487;-81
2022/07/25 02:57:05;;;;;;;4.30;3.90;;;23.60;64.90;;;;;;5077022;28;20077;-81
2022/07/25 02:59:31;;;;;;;3.70;3.40;;;23.60;64.90;;;;;;5077151;28;20475;-82
2022/07/25 03:01:57;;;;;;;4.30;3.67;;;23.60;65.00;;;;;;5094136;28;20027;-81
2022/07/25 03:04:22;;;;;;;5.85;3.67;;;23.60;65.10;;;;;;5094000;28;20463;-81
2022/07/25 03:06:48;;;;;;;4.40;3.55;;;23.50;65.20;;;;;;5075970;28;20412;-81
2022/07/25 03:09:13;;;;;;;3.90;3.50;;;23.50;65.20;;;;;;5076367;28;20454;-81
2022/07/25 03:11:39;;;;;;;3.95;3.60;;;23.40;65.30;;;;;;5075817;28;20115;-80
2022/07/25 03:14:07;;;;;;;4.05;3.55;;;23.40;65.40;;;;;;5075820;28;20475;-81
2022/07/25 03:16:32;;;;;;;4.28;3.78;;;23.50;65.50;;;;;;5092458;28;20034;-80
2022/07/25 03:18:58;;;;;;;4.32;3.92;;;23.40;65.60;;;;;;5074922;28;20036;-81
2022/07/25 03:21:23;;;;;;;5.88;3.70;;;23.30;65.70;;;;;;5093415;28;20028;-81
2022/07/25 03:23:49;;;;;;;4.15;3.75;;;23.30;65.70;;;;;;5074993;28;20024;-80
2022/07/25 03:26:15;;;;;;;4.47;4.00;;;23.30;65.80;;;;;;5075698;28;20352;-80
2022/07/25 03:28:40;;;;;;;4.32;3.72;;;23.30;65.90;;;;;;5094104;28;20479;-81
2022/07/25 03:31:06;;;;;;;5.90;3.70;;;23.20;66.00;;;;;;5075090;28;20040;-80
2022/07/25 03:33:32;;;;;;;4.82;4.13;;;23.20;66.00;;;;;;5091891;28;20120;-81
2022/07/25 03:35:57;;;;;;;5.75;4.30;;;23.10;66.10;;;;;;5075121;28;20055;-81
2022/07/25 03:38:23;;;;;;;4.63;4.22;;;23.10;66.20;;;;;;5075333;28;20035;-80
2022/07/25 03:40:49;;;;;;;4.70;4.07;;;23.10;66.30;;;;;;5075046;28;20146;-81
2022/07/25 03:43:15;;;;;;;5.10;4.35;;;23.10;66.30;;;;;;5093216;28;20038;-81
2022/07/25 03:45:41;;;;;;;4.60;4.00;;;23.10;66.50;;;;;;5093420;28;20110;-80
2022/07/25 03:48:06;;;;;;;4.68;4.28;;;23.10;66.50;;;;;;5075423;28;20093;-80
2022/07/25 03:50:32;;;;;;;4.20;3.80;;;23.10;66.50;;;;;;5074995;28;20067;-81
2022/07/25 03:52:58;;;;;;;5.00;4.22;;;23.10;66.50;;;;;;5093811;28;20036;-81
2022/07/25 03:55:23;;;;;;;4.40;4.00;;;23.10;66.50;;;;;;5075540;28;20035;-81
2022/07/25 03:57:49;;;;;;;5.68;4.10;;;23.10;66.50;;;;;;5093413;28;20395;-81
2022/07/25 04:00:16;;;;;;;4.78;4.30;;;23.10;66.50;;;;;;5075232;28;20032;-81
2022/07/25 04:02:42;;;;;;;5.60;4.32;;;23.10;66.50;;;;;;5091331;28;20479;-81
2022/07/25 04:05:08;;;;;;;4.95;4.50;;;23.10;66.50;;;;;;5093007;28;20028;-81
2022/07/25 04:07:35;;;;;;;5.55;4.63;;;23.10;66.50;;;;;;5074920;28;20471;-81
2022/07/25 04:10:01;;;;;;;8.57;3.95;;;23.10;66.60;;;;;;5092952;28;20111;-80
2022/07/25 04:12:26;;;;;;;5.00;4.00;;;23.10;66.60;;;;;;5092658;28;20133;-81
2022/07/25 04:14:52;;;;;;;4.80;4.40;;;23.10;66.60;;;;;;5074297;28;20028;-81
2022/07/25 04:17:18;;;;;;;4.85;4.15;;;23.10;66.60;;;;;;5092572;28;20553;-81
2022/07/25 04:19:44;;;;;;;4.80;4.30;;;23.10;66.60;;;;;;5074264;28;20514;-82
2022/07/25 04:22:10;;;;;;;4.95;4.45;;;23.20;66.60;;;;;;5092342;28;20340;-81
2022/07/25 04:24:36;;;;;;;4.72;4.22;;;23.10;66.50;;;;;;5074297;28;20021;-81
2022/07/25 04:27:01;;;;;;;4.70;4.15;;;23.10;66.40;;;;;;5074325;28;20020;-80
2022/07/25 04:29:28;;;;;;;5.18;4.68;;;23.20;66.50;;;;;;5074366;28;20336;-81
2022/07/25 04:31:53;;;;;;;6.47;4.28;;;23.20;66.50;;;;;;5092500;28;20088;-80
2022/07/25 04:34:19;;;;;;;6.00;4.35;;;23.20;66.60;;;;;;5074140;28;20574;-80
2022/07/25 04:36:45;;;;;;;4.95;4.25;;;23.10;66.50;;;;;;5074054;28;20459;-80
2022/07/25 04:39:10;;;;;;;5.72;4.63;;;23.10;66.60;;;;;;5092601;28;20051;-81
2022/07/25 04:41:36;;;;;;;5.72;4.32;;;23.20;66.70;;;;;;5092782;28;20040;-81
2022/07/25 04:44:02;;;;;;;5.07;4.57;;;23.20;66.70;;;;;;5092802;28;20020;-81
2022/07/25 04:46:27;;;;;;;6.10;4.28;;;23.20;66.60;;;;;;5074510;28;20024;-80
2022/07/25 04:48:53;;;;;;;4.72;4.28;;;23.20;66.70;;;;;;5074355;28;20042;-80
2022/07/25 04:51:18;;;;;;;7.03;4.40;;;23.20;66.70;;;;;;5074800;28;20032;-81
2022/07/25 04:53:44;;;;;;;4.97;4.50;;;23.30;66.70;;;;;;5074553;28;20032;-81
2022/07/25 04:56:10;;;;;;;4.90;4.50;;;23.30;66.60;;;;;;5077250;28;20501;-81
2022/07/25 04:58:36;;;;;;;5.18;4.68;;;23.30;66.60;;;;;;5078528;28;20036;-81
2022/07/25 05:01:01;;;;;;;4.60;4.20;;;23.40;66.60;;;;;;5078479;28;20111;-81
2022/07/25 05:03:27;;;;;;;6.78;4.53;;;23.40;66.50;;;;;;5077751;28;20187;-81
2022/07/25 05:05:52;;;;;;;5.03;4.53;;;23.40;66.50;;;;;;5078204;28;20028;-81
2022/07/25 05:08:18;;;;;;;5.82;4.25;;;23.40;66.40;;;;;;5078358;28;20020;-81
2022/07/25 05:10:44;;;;;;;7.00;4.95;;;23.50;66.20;;;;;;5078777;28;20042;-80
2022/07/25 05:13:09;;;;;;;6.03;4.32;;;23.50;66.10;;;;;;5079648;28;20020;-81
2022/07/25 05:15:35;;;;;;;5.63;4.05;;;23.60;66.10;;;;;;5098234;28;20536;-80
2022/07/25 05:18:01;;;;;;;5.95;4.80;;;23.60;66.00;;;;;;5079550;28;20035;-80
2022/07/25 05:20:27;;;;;;;5.70;4.55;;;23.70;65.90;;;;;;5080665;28;20024;-81
2022/07/25 05:22:52;;;;;;;5.97;4.40;;;23.80;65.80;;;;;;5096463;28;20077;-80
2022/07/25 05:25:18;;;;;;;5.10;4.55;;;23.80;65.60;;;;;;5077749;28;20103;-81
2022/07/25 05:27:44;;;;;;;6.43;4.63;;;23.90;65.40;;;;;;5098708;28;20028;-82
2022/07/25 05:30:11;;;;;;;4.53;4.13;;;24.00;65.20;;;;;;5086987;28;20157;-82
2022/07/25 05:32:38;;;;;;;6.20;4.60;;;24.00;65.10;;;;;;5097615;28;20449;-83
2022/07/25 05:35:06;;;;;;;5.43;4.78;;;24.10;65.00;;;;;;5083280;28;20020;-82
2022/07/25 05:37:33;;;;;;;5.45;4.47;;;24.10;64.90;;;;;;5104847;28;20024;-81
2022/07/25 05:39:58;;;;;;;4.70;4.18;;;24.10;64.80;;;;;;5080586;28;20032;-82
2022/07/25 05:42:24;;;;;;;4.65;4.22;;;24.10;64.70;;;;;;5078482;28;20050;-81
2022/07/25 05:44:50;;;;;;;5.97;5.07;;;24.20;64.60;;;;;;5077475;28;20063;-81
2022/07/25 05:47:15;;;;;;;5.25;4.75;;;24.20;64.40;;;;;;5078377;28;20031;-82
2022/07/25 05:49:41;;;;;;;5.70;4.88;;;24.20;64.10;;;;;;5078099;28;20043;-81
2022/07/25 05:52:07;;;;;;;4.82;4.38;;;24.20;63.90;;;;;;5077479;28;20052;-82
2022/07/25 05:54:33;;;;;;;5.10;4.60;;;24.30;63.70;;;;;;5077956;28;20040;-81
2022/07/25 05:56:59;;;;;;;4.75;4.35;;;24.30;63.50;;;;;;5078102;28;20484;-82
2022/07/25 05:59:25;;;;;;;5.32;4.78;;;24.40;63.30;;;;;;5098968;28;20031;-81
2022/07/25 06:01:51;;;;;;;4.88;4.40;;;24.50;63.10;;;;;;5098091;28;20050;-82
2022/07/25 06:04:17;;;;;;;5.40;4.63;;;24.50;62.90;;;;;;5098559;28;20482;-81
2022/07/25 06:06:42;;;;;;;5.97;4.30;;;24.60;62.60;;;;;;5080167;28;20078;-82
2022/07/25 06:09:08;;;;;;;5.45;4.07;;;24.70;62.30;;;;;;5081979;28;20028;-83
2022/07/25 06:11:33;;;;;;;5.50;4.57;;;24.70;62.10;;;;;;5080282;28;20063;-81
2022/07/25 06:13:59;;;;;;;4.63;4.22;;;24.80;61.90;;;;;;5082952;28;20024;-81
2022/07/25 06:16:25;;;;;;;7.20;5.40;;;24.90;61.60;;;;;;5097846;28;20486;-81
2022/07/25 06:18:50;;;;;;;5.40;4.90;;;24.90;61.30;;;;;;5103224;28;20056;-82
2022/07/25 06:21:16;;;;;;;5.55;4.55;;;24.90;61.20;;;;;;5099656;28;20035;-81
2022/07/25 06:23:42;;;;;;;5.68;5.10;;;24.90;61.10;;;;;;5081481;28;20056;-82
2022/07/25 06:26:09;;;;;;;5.75;4.70;;;24.90;60.80;;;;;;5083035;28;20502;-82
2022/07/25 06:28:35;;;;;;;5.50;4.93;;;25.00;60.70;;;;;;5087893;28;20030;-82
2022/07/25 06:31:01;;;;;;;5.97;4.93;;;25.10;60.60;;;;;;5097046;28;20035;-82
2022/07/25 06:36:48;;;;;;;7.93;4.75;;;25.20;60.30;;;;;;5097692;28;20039;-82
2022/07/25 06:39:14;;;;;;;8.13;5.20;;;25.30;60.30;;;;;;5096905;28;20467;-82
2022/07/25 06:41:41;;;;;;;6.43;5.28;;;25.30;60.10;;;;;;5099643;28;20062;-82
2022/07/25 06:44:06;;;;;;;5.50;5.00;;;25.40;60.10;;;;;;5080439;28;20028;-82
2022/07/25 06:46:32;;;;;;;9.00;5.57;;;25.40;60.10;;;;;;5097132;28;20024;-82
2022/07/25 06:48:58;;;;;;;7.07;5.57;;;25.30;60.00;;;;;;5097997;28;20027;-81
2022/07/25 06:51:24;;;;;;;5.82;5.13;;;25.30;60.10;;;;;;5079582;28;20095;-83
2022/07/25 06:53:50;;;;;;;8.77;5.50;;;25.20;60.10;;;;;;5080646;28;20028;-82
2022/07/25 06:56:18;;;;;;;8.27;5.75;;;25.20;60.10;;;;;;5079479;28;20550;-82
2022/07/25 06:58:44;;;;;;;5.85;5.15;;;25.10;60.10;;;;;;5096773;28;20031;-83
2022/07/25 07:01:10;;;;;;;7.22;5.25;;;25.10;60.30;;;;;;5077617;28;20499;-83
2022/07/25 07:03:37;;;;;;;5.78;4.57;;;25.00;60.40;;;;;;5076885;28;20054;-83
2022/07/25 07:06:08;;;;;;;6.55;5.25;;;24.90;60.60;;;;;;5076020;28;20055;-82
2022/07/25 07:08:34;;;;;;;6.57;4.97;;;24.80;60.70;;;;;;5094558;28;20493;-81
2022/07/25 07:11:00;;;;;;;6.22;4.90;;;24.80;60.90;;;;;;5093788;28;20024;-77
2022/07/25 07:13:26;;;;;;;8.88;5.95;;;24.70;61.60;;;;;;5077268;28;20085;-80
2022/07/25 07:15:51;;;;;;;6.82;5.70;;;24.70;61.10;;;;;;5076159;28;20032;-76
2022/07/25 07:18:18;;;;;;;7.07;5.30;;;24.60;61.10;;;;;;5075765;28;20380;-74
2022/07/25 07:20:44;;;;;;;6.93;4.90;;;24.60;61.20;;;;;;5094052;28;20020;-75
2022/07/25 07:23:10;;;;;;;5.28;4.78;;;24.70;61.20;;;;;;5092833;28;20016;-76
2022/07/25 07:25:36;;;;;;;4.93;4.43;;;24.80;61.20;;;;;;5075407;28;20026;-76
2022/07/25 07:28:02;;;;;;;4.85;4.40;;;24.90;61.00;;;;;;5075558;28;20119;-79
2022/07/25 07:30:28;;;;;;;5.05;4.55;;;25.00;60.90;;;;;;5075251;28;20047;-79
2022/07/25 07:32:53;;;;;;;5.15;4.50;;;25.10;60.80;;;;;;5094387;28;20047;-82
2022/07/25 07:38:43;;;;;;;4.28;3.40;;;25.30;60.10;;;;;;5093938;28;20161;-79
2022/07/25 07:41:08;;;;;;;3.80;3.38;;;25.40;59.80;;;;;;5075094;28;20020;-78
2022/07/25 07:43:34;;;;;;;3.92;3.30;;;25.40;59.50;;;;;;5075113;28;20157;-77
2022/07/25 07:46:03;;;;;;;4.28;2.78;;;25.40;59.30;;;;;;5075148;28;20388;-76
2022/07/25 07:48:29;;;;;;;5.25;3.22;;;25.40;59.00;;;;;;5075243;28;20483;-74
2022/07/25 07:50:55;;;;;;;4.72;2.97;;;25.40;58.90;;;;;;5075028;28;20036;-75
2022/07/25 07:53:21;;;;;;;3.10;2.70;;;25.50;58.80;;;;;;5091726;28;20115;-75
2022/07/25 07:55:53;;;;;;;3.20;2.85;;;25.60;58.70;;;;;;5074545;28;20047;-74
2022/07/25 07:58:20;;;;;;;3.55;2.67;;;25.60;58.40;;;;;;5074562;28;20032;-75
2022/07/25 08:00:47;;;;;;;2.80;2.40;;;25.70;58.20;;;;;;5091563;28;20016;-75
2022/07/25 08:03:17;;;;;;;3.22;2.72;;;25.70;57.80;;;;;;5091497;28;20031;-76
2022/07/25 08:05:44;;;;;;;3.60;2.65;;;25.70;57.60;;;;;;5074745;28;20031;-75
2022/07/25 08:08:11;;;;;;;3.53;2.53;;;25.80;57.50;;;;;;5091292;28;20020;-75
2022/07/25 08:10:39;;;;;;;3.95;2.22;;;25.80;57.20;;;;;;5091395;28;20449;-76
2022/07/25 08:13:16;;;;;;;2.78;2.33;;;25.90;57.10;;;;;;5093698;28;20085;-74
2022/07/25 08:15:44;;;;;;;3.72;2.35;;;25.90;56.80;;;;;;5074450;28;20028;-73
2022/07/25 08:18:10;;;;;;;3.35;2.30;;;25.90;56.40;;;;;;5091410;28;20088;-74
2022/07/25 08:20:36;;;;;;;3.25;2.20;;;25.90;56.30;;;;;;5074746;28;20417;-76
2022/07/25 08:23:02;;;;;;;2.20;2.00;;;25.80;56.60;;;;;;5091578;28;20027;-75
2022/07/25 08:25:29;;;;;;;1.92;1.70;;;25.70;56.80;;;;;;5092764;28;20020;-74
2022/07/25 08:27:56;;;;;;;1.70;1.60;;;25.60;56.30;;;;;;5092478;28;20028;-74
2022/07/25 08:30:22;;;;;;;1.90;1.65;;;25.50;56.20;;;;;;5096141;28;20020;-74
2022/07/25 08:32:55;;;;;;;1.90;1.80;;;25.50;56.10;;;;;;5078511;28;20039;-74
2022/07/25 08:35:23;;;;;;;1.63;1.52;;;25.60;55.60;;;;;;5096643;28;20514;-74
2022/07/25 08:37:49;;;;;;;1.52;1.42;;;25.60;55.50;;;;;;5096462;28;20153;-74
2022/07/25 08:40:17;;;;;;;1.65;1.45;;;25.70;55.50;;;;;;5095083;28;20032;-74
2022/07/25 08:46:05;;;;;;;1.65;1.40;;;25.90;55.20;;;;;;5096744;28;20069;-73
2022/07/25 08:48:31;;;;;;;1.90;1.60;;;25.90;55.30;;;;;;5094906;28;20149;-74
2022/07/25 08:54:19;;;;;;;1.50;1.40;;;25.90;55.40;;;;;;5096684;28;20035;-75
2022/07/25 08:56:45;;;;;;;1.58;1.30;;;25.90;55.60;;;;;;5096164;28;20123;-75
2022/07/25 08:59:11;;;;;;;1.42;1.33;;;25.90;55.70;;;;;;5078013;28;20062;-74
2022/07/25 09:01:39;;;;;;;3.15;1.40;;;26.00;55.80;;;;;;5096070;28;20085;-74
2022/07/25 09:04:08;;;;;;;2.40;1.50;;;26.10;55.90;;;;;;5078005;28;20024;-75
2022/07/25 09:06:34;;;;;;;2.47;1.23;;;26.20;55.90;;;;;;5094672;28;20039;-74
2022/07/25 09:09:03;;;;;;;1.58;1.40;;;26.30;55.80;;;;;;5077923;28;20073;-75
2022/07/25 09:11:30;;;;;;;2.17;1.50;;;26.30;55.70;;;;;;5094690;28;20111;-75
2022/07/25 09:14:01;;;;;;;1.25;1.15;;;26.30;55.90;;;;;;5094506;28;20024;-75
2022/07/25 09:16:37;;;;;;;2.97;1.17;;;26.40;56.20;;;;;;5077633;28;20024;-75
2022/07/25 09:19:46;;;;;;;2.00;1.15;;;26.40;56.40;;;;;;5094644;28;20439;-74
2022/07/25 09:22:15;;;;;;;1.20;1.13;;;26.50;56.70;;;;;;5077415;28;20027;-74
2022/07/25 09:24:44;;;;;;;3.13;1.35;;;26.50;56.80;;;;;;5077775;28;20471;-75
2022/07/25 09:27:10;;;;;;;2.72;1.10;;;26.60;57.10;;;;;;5077555;28;20020;-74
2022/07/25 09:29:38;;;;;;;1.25;1.10;;;26.60;57.10;;;;;;5077522;28;20501;-74
2022/07/25 09:32:15;;;;;;;1.38;1.00;;;26.50;57.20;;;;;;5074687;28;20052;-74
2022/07/25 09:38:07;;;;;;;1.67;1.17;;;26.40;57.30;;;;;;5096052;28;20034;-73
2022/07/25 09:40:33;;;;;;;1.50;0.93;;;26.30;57.70;;;;;;5076523;28;20036;-74
2022/07/25 09:42:59;;;;;;;1.60;0.90;;;26.20;57.90;;;;;;5095340;28;20387;-73
2022/07/25 09:45:25;;;;;;;2.40;0.90;;;26.20;57.90;;;;;;5077243;28;20020;-73
2022/07/25 09:47:57;;;;;;;1.75;0.90;;;26.30;58.00;;;;;;5077100;28;20043;-73
2022/07/25 09:50:24;;;;;;;2.65;0.80;;;26.30;58.30;;;;;;5093799;28;20027;-74
2022/07/25 09:52:56;;;;;;;1.88;1.10;;;26.30;58.60;;;;;;5093915;28;20456;-73
2022/07/25 09:55:23;;;;;;;0.80;0.80;;;26.30;58.70;;;;;;5093974;28;20059;-74
2022/07/25 09:57:51;;;;;;;2.20;0.85;;;26.30;58.70;;;;;;5095120;28;20040;-74
2022/07/25 10:00:22;;;;;;;1.85;0.80;;;26.30;58.60;;;;;;5092084;28;20046;-73
2022/07/25 10:02:57;;;;;;;3.50;0.90;;;26.40;58.30;;;;;;5093522;28;20434;-73
2022/07/25 10:05:38;;;;;;;1.42;1.10;;;26.40;58.10;;;;;;5093665;28;20560;-74
2022/07/25 10:08:06;;;;;;;2.55;1.00;;;26.50;58.00;;;;;;5076646;28;20016;-73
2022/07/25 10:10:38;;;;;;;2.13;0.80;;;26.40;57.80;;;;;;5094743;28;20098;-72
2022/07/25 10:13:14;;;;;;;2.47;1.08;;;26.30;58.00;;;;;;5076768;28;20024;-74
2022/07/25 10:15:51;;;;;;;2.17;1.02;;;26.30;57.90;;;;;;5092648;28;20491;-73
2022/07/25 10:18:20;;;;;;;3.08;1.05;;;26.40;57.90;;;;;;5093406;28;20032;-73
2022/07/25 10:20:48;;;;;;;2.42;1.00;;;26.50;57.70;;;;;;5093319;28;20115;-73
2022/07/25 10:23:31;;;;;;;1.67;0.98;;;26.60;57.90;;;;;;5093617;28;20024;-73
2022/07/25 10:26:07;;;;;;;1.75;1.02;;;26.60;57.80;;;;;;5076483;28;20016;-74
2022/07/25 10:28:42;;;;;;;2.13;1.23;;;26.70;57.80;;;;;;5093414;28;20062;-73
2022/07/25 10:31:20;;;;;;;1.88;1.10;;;26.70;57.60;;;;;;5092966;28;20040;-73
2022/07/25 10:34:01;;;;;;;1.50;1.00;;;26.80;57.70;;;;;;5076214;28;20031;-73
2022/07/25 10:36:41;;;;;;;3.13;1.10;;;26.90;57.80;;;;;;5093004;28;20024;-73
2022/07/25 10:39:09;;;;;;;1.90;1.40;;;27.10;57.70;;;;;;5092889;28;20051;-73
2022/07/25 10:41:39;;;;;;;2.08;1.17;;;27.20;57.50;;;;;;5092771;28;20176;-74
2022/07/25 10:44:13;;;;;;;1.55;1.10;;;27.30;57.40;;;;;;5092638;28;20076;-73
2022/07/25 10:46:39;;;;;;;2.25;1.40;;;27.30;57.10;;;;;;5093949;28;20028;-74
2022/07/25 10:49:07;;;;;;;2.42;1.20;;;27.40;56.90;;;;;;5075617;28;20028;-73
2022/07/25 10:51:35;;;;;;;2.75;1.00;;;27.60;56.60;;;;;;5092449;28;20018;-74
2022/07/25 10:54:16;;;;;;;2.55;1.20;;;27.60;56.10;;;;;;5074781;28;20044;-74
2022/07/25 10:56:56;;;;;;;3.00;1.40;;;27.70;55.20;;;;;;5075535;28;20024;-74
2022/07/25 10:59:34;;;;;;;1.85;0.95;;;27.60;54.20;;;;;;5092218;28;20535;-74
2022/07/25 11:02:00;;;;;;;3.13;1.50;;;27.60;54.20;;;;;;5075343;28;20181;-74
2022/07/25 11:04:26;;;;;;;2.63;1.30;;;27.60;54.10;;;;;;5092186;28;20055;-74
2022/07/25 11:06:52;;;;;;;1.83;1.30;;;27.60;54.30;;;;;;5075239;28;20008;-74
2022/07/25 11:09:27;;;;;;;2.75;1.42;;;27.60;54.80;;;;;;5093305;28;20043;-73
2022/07/25 11:11:56;;;;;;;2.78;1.17;;;27.60;54.10;;;;;;5075153;28;20368;-74
2022/07/25 11:14:40;;;;;;;2.92;1.00;;;27.50;53.70;;;;;;5093539;28;20012;-74
2022/07/25 11:17:22;;;;;;;2.50;1.30;;;27.60;53.70;;;;;;5093295;28;20016;-75
2022/07/25 11:20:02;;;;;;;2.40;1.00;;;27.50;54.00;;;;;;5089384;28;20387;-74
2022/07/25 11:22:29;;;;;;;3.67;1.40;;;27.50;54.20;;;;;;5092033;28;20036;-74
2022/07/25 11:24:58;;;;;;;5.07;1.40;;;27.40;54.50;;;;;;5091747;28;20028;-73
2022/07/25 11:27:31;;;;;;;4.30;1.63;;;27.40;54.70;;;;;;5093275;28;20146;-73
2022/07/25 11:30:13;;;;;;;3.25;1.50;;;27.30;54.80;;;;;;5091580;28;20020;-75
2022/07/25 11:32:41;;;;;;;4.13;1.23;;;27.40;55.10;;;;;;5091882;28;20036;-74
2022/07/25 11:35:08;;;;;;;3.05;1.23;;;27.40;55.00;;;;;;5092992;28;20028;-73
2022/07/25 11:37:37;;;;;;;3.05;1.38;;;27.40;55.10;;;;;;5091785;28;20035;-73
2022/07/25 11:40:03;;;;;;;4.47;1.60;;;27.40;55.00;;;;;;5091674;28;20051;-72
2022/07/25 11:42:43;;;;;;;3.25;1.38;;;27.40;54.90;;;;;;5074448;28;20126;-74
2022/07/25 11:45:16;;;;;;;5.60;1.70;;;27.40;55.00;;;;;;5074756;28;20455;-74
2022/07/25 11:47:42;;;;;;;2.47;1.48;;;27.40;54.70;;;;;;5074648;28;20115;-74
2022/07/25 11:50:13;;;;;;;5.50;1.40;;;27.30;54.90;;;;;;5074603;28;20440;-74
2022/07/25 11:52:44;;;;;;;3.13;1.55;;;27.20;55.10;;;;;;5071338;28;20123;-74
2022/07/25 11:55:13;;;;;;;2.50;1.40;;;27.10;55.20;;;;;;5092675;28;20070;-73
2022/07/25 11:57:46;;;;;;;2.63;1.60;;;27.00;55.00;;;;;;5091272;28;20024;-74
2022/07/25 12:00:18;;;;;;;2.33;1.38;;;26.80;54.90;;;;;;5074278;28;20035;-73
2022/07/25 12:02:45;;;;;;;4.50;1.40;;;26.70;55.00;;;;;;5092592;28;20047;-74
2022/07/25 12:05:13;;;;;;;2.53;1.40;;;26.80;55.50;;;;;;5090983;28;20012;-74
2022/07/25 12:07:48;;;;;;;2.88;1.50;;;26.70;55.60;;;;;;5091487;28;20467;-73
2022/07/25 12:10:22;;;;;;;2.42;1.25;;;26.60;55.50;;;;;;5092602;28;20035;-74
2022/07/25 12:12:54;;;;;;;3.95;1.55;;;26.60;55.00;;;;;;5091276;28;20436;-74
2022/07/25 12:15:22;;;;;;;5.95;1.90;;;26.50;54.70;;;;;;5091185;28;20412;-73
2022/07/25 12:17:50;;;;;;;4.10;1.80;;;26.40;54.60;;;;;;5091172;28;20031;-73
2022/07/25 12:20:23;;;;;;;4.28;1.35;;;26.40;54.60;;;;;;5091155;28;20552;-73
2022/07/25 12:22:50;;;;;;;3.85;1.30;;;26.40;54.50;;;;;;5092434;28;20039;-73
2022/07/25 12:25:16;;;;;;;2.33;1.40;;;26.50;53.80;;;;;;5092400;28;20018;-73
2022/07/25 12:27:42;;;;;;;5.43;1.60;;;26.60;53.20;;;;;;5074354;28;20437;-73
2022/07/25 12:30:09;;;;;;;2.58;1.50;;;26.80;52.70;;;;;;5092226;28;20050;-73
2022/07/25 12:32:36;;;;;;;3.00;1.50;;;26.70;52.40;;;;;;5091162;28;20024;-73
2022/07/25 12:35:04;;;;;;;3.30;1.40;;;26.80;52.70;;;;;;5092532;28;20475;-74
2022/07/25 12:37:30;;;;;;;3.22;1.50;;;26.80;52.80;;;;;;5091709;28;20104;-74
2022/07/25 12:39:56;;;;;;;3.45;1.67;;;26.80;53.00;;;;;;5093256;28;20610;-74
2022/07/25 12:42:22;;;;;;;5.68;1.98;;;26.90;53.10;;;;;;5092712;28;20387;-73
2022/07/25 12:44:48;;;;;;;3.05;1.80;;;26.90;53.00;;;;;;5091177;28;20008;-74
2022/07/25 12:47:14;;;;;;;3.80;1.70;;;26.90;53.00;;;;;;5092299;28;20032;-73
2022/07/25 12:49:39;;;;;;;4.20;1.77;;;26.90;53.00;;;;;;5074070;28;20020;-73
2022/07/25 12:52:05;;;;;;;4.22;2.05;;;26.80;53.40;;;;;;5073973;28;20029;-73
2022/07/25 12:54:30;;;;;;;3.95;1.92;;;26.70;53.50;;;;;;5073939;28;20090;-73
2022/07/25 12:56:56;;;;;;;6.35;2.40;;;26.60;53.70;;;;;;5073593;28;20031;-73
2022/07/25 12:59:22;;;;;;;6.15;2.47;;;26.60;53.90;;;;;;5091981;28;20038;-73
2022/07/25 13:01:48;;;;;;;3.90;1.90;;;26.30;54.20;;;;;;5073717;28;20031;-73
2022/07/25 13:04:13;;;;;;;4.18;1.70;;;26.10;54.70;;;;;;5073512;28;20024;-72
2022/07/25 13:06:39;;;;;;;4.30;2.00;;;26.00;55.20;;;;;;5074001;28;20081;-73
2022/07/25 13:09:06;;;;;;;8.00;1.92;;;25.90;55.40;;;;;;5073898;28;20343;-74